sensor_id;sensor_type;location;lat;lon;timestamp;temperature;humidity
10304;DHT22;5197;48.152;8.590;2023-04-25T00:02:14;7.50;6.00
10304;DHT22;5197;48.152;8.590;2023-04-25T00:04:41;7.50;6.00
10304;DHT22;5197;48.152;8.590;2023-04-25T00:07:09;7.50;6.40
10304;DHT22;5197;48.152;8.590;2023-04-25T00:09:36;7.50;6.50
10304;DHT22;5197;48.152;8.590;2023-04-25T00:12:03;7.50;6.70
10304;DHT22;5197;48.152;8.590;2023-04-25T00:14:29;7.50;6.90
10304;DHT22;5197;48.152;8.590;2023-04-25T00:16:57;7.40;6.70
10304;DHT22;5197;48.152;8.590;2023-04-25T00:19:26;7.40;6.70
10304;DHT22;5197;48.152;8.590;2023-04-25T00:21:55;7.50;6.90
10304;DHT22;5197;48.152;8.590;2023-04-25T00:24:22;7.50;7.00
10304;DHT22;5197;48.152;8.590;2023-04-25T00:26:48;7.50;7.00
10304;DHT22;5197;48.152;8.590;2023-04-25T00:29:15;7.50;7.30
10304;DHT22;5197;48.152;8.590;2023-04-25T00:31:42;7.50;7.30
10304;DHT22;5197;48.152;8.590;2023-04-25T00:34:09;7.50;7.50
10304;DHT22;5197;48.152;8.590;2023-04-25T00:36:36;7.40;7.40
10304;DHT22;5197;48.152;8.590;2023-04-25T00:39:03;7.40;7.50
10304;DHT22;5197;48.152;8.590;2023-04-25T00:41:31;7.30;7.80
10304;DHT22;5197;48.152;8.590;2023-04-25T00:43:59;7.30;8.00
10304;DHT22;5197;48.152;8.590;2023-04-25T00:46:27;8.40;9.10
10304;DHT22;5197;48.152;8.590;2023-04-25T00:48:54;7.20;8.50
10304;DHT22;5197;48.152;8.590;2023-04-25T00:51:21;7.10;8.40
10304;DHT22;5197;48.152;8.590;2023-04-25T00:53:49;7.10;8.70
10304;DHT22;5197;48.152;8.590;2023-04-25T00:56:17;7.30;9.10
10304;DHT22;5197;48.152;8.590;2023-04-25T00:58:44;7.10;9.20
10304;DHT22;5197;48.152;8.590;2023-04-25T01:01:12;7.10;9.30
10304;DHT22;5197;48.152;8.590;2023-04-25T01:03:40;7.00;9.50
10304;DHT22;5197;48.152;8.590;2023-04-25T01:06:10;7.00;9.60
10304;DHT22;5197;48.152;8.590;2023-04-25T01:08:38;7.00;9.80
10304;DHT22;5197;48.152;8.590;2023-04-25T01:11:06;7.00;10.00
10304;DHT22;5197;48.152;8.590;2023-04-25T01:13:34;8.30;11.30
10304;DHT22;5197;48.152;8.590;2023-04-25T01:16:01;6.90;10.40
10304;DHT22;5197;48.152;8.590;2023-04-25T01:18:28;6.90;10.70
10304;DHT22;5197;48.152;8.590;2023-04-25T01:20:55;6.90;11.00
10304;DHT22;5197;48.152;8.590;2023-04-25T01:23:24;6.80;10.90
10304;DHT22;5197;48.152;8.590;2023-04-25T01:25:51;9.20;12.50
10304;DHT22;5197;48.152;8.590;2023-04-25T01:28:18;9.50;13.00
10304;DHT22;5197;48.152;8.590;2023-04-25T01:30:46;6.80;11.50
10304;DHT22;5197;48.152;8.590;2023-04-25T01:33:14;6.60;11.90
10304;DHT22;5197;48.152;8.590;2023-04-25T01:35:42;6.80;12.10
10304;DHT22;5197;48.152;8.590;2023-04-25T01:38:11;6.80;12.50
10304;DHT22;5197;48.152;8.590;2023-04-25T01:40:39;6.70;12.60
10304;DHT22;5197;48.152;8.590;2023-04-25T01:43:07;6.70;12.80
10304;DHT22;5197;48.152;8.590;2023-04-25T01:45:38;6.60;12.70
10304;DHT22;5197;48.152;8.590;2023-04-25T01:48:10;6.80;12.90
10304;DHT22;5197;48.152;8.590;2023-04-25T01:50:38;6.70;13.10
10304;DHT22;5197;48.152;8.590;2023-04-25T01:53:05;6.70;13.20
10304;DHT22;5197;48.152;8.590;2023-04-25T01:55:32;6.70;13.50
10304;DHT22;5197;48.152;8.590;2023-04-25T01:58:01;6.60;13.80
10304;DHT22;5197;48.152;8.590;2023-04-25T02:00:28;6.50;13.80
10304;DHT22;5197;48.152;8.590;2023-04-25T02:02:59;6.50;13.90
10304;DHT22;5197;48.152;8.590;2023-04-25T02:05:26;6.50;14.10
10304;DHT22;5197;48.152;8.590;2023-04-25T02:07:52;6.50;14.10
10304;DHT22;5197;48.152;8.590;2023-04-25T02:10:19;6.50;14.10
10304;DHT22;5197;48.152;8.590;2023-04-25T02:12:46;6.60;14.30
10304;DHT22;5197;48.152;8.590;2023-04-25T02:15:13;6.50;14.20
10304;DHT22;5197;48.152;8.590;2023-04-25T02:17:40;6.50;14.30
10304;DHT22;5197;48.152;8.590;2023-04-25T02:20:07;6.40;14.20
10304;DHT22;5197;48.152;8.590;2023-04-25T02:22:34;6.40;14.40
10304;DHT22;5197;48.152;8.590;2023-04-25T02:25:02;6.30;14.40
10304;DHT22;5197;48.152;8.590;2023-04-25T02:27:31;6.30;14.70
10304;DHT22;5197;48.152;8.590;2023-04-25T02:29:58;6.10;14.90
10304;DHT22;5197;48.152;8.590;2023-04-25T02:32:24;6.20;15.00
10304;DHT22;5197;48.152;8.590;2023-04-25T02:34:51;6.10;15.30
10304;DHT22;5197;48.152;8.590;2023-04-25T02:37:18;6.10;15.40
10304;DHT22;5197;48.152;8.590;2023-04-25T02:39:45;6.10;15.50
10304;DHT22;5197;48.152;8.590;2023-04-25T02:42:12;6.10;15.40
10304;DHT22;5197;48.152;8.590;2023-04-25T02:44:39;6.10;15.40
10304;DHT22;5197;48.152;8.590;2023-04-25T02:47:06;6.10;15.50
10304;DHT22;5197;48.152;8.590;2023-04-25T02:49:33;6.10;15.60
10304;DHT22;5197;48.152;8.590;2023-04-25T02:51:59;6.10;15.70
10304;DHT22;5197;48.152;8.590;2023-04-25T02:54:26;6.00;15.80
10304;DHT22;5197;48.152;8.590;2023-04-25T02:56:53;6.00;16.10
10304;DHT22;5197;48.152;8.590;2023-04-25T02:59:20;6.00;16.10
10304;DHT22;5197;48.152;8.590;2023-04-25T03:01:47;5.80;16.40
10304;DHT22;5197;48.152;8.590;2023-04-25T03:04:13;5.90;16.10
10304;DHT22;5197;48.152;8.590;2023-04-25T03:06:40;5.90;16.20
10304;DHT22;5197;48.152;8.590;2023-04-25T03:09:07;5.90;16.40
10304;DHT22;5197;48.152;8.590;2023-04-25T03:11:34;5.90;16.50
10304;DHT22;5197;48.152;8.590;2023-04-25T03:14:01;5.90;16.60
10304;DHT22;5197;48.152;8.590;2023-04-25T03:16:28;5.80;16.70
10304;DHT22;5197;48.152;8.590;2023-04-25T03:18:55;5.80;16.70
10304;DHT22;5197;48.152;8.590;2023-04-25T03:21:21;5.80;16.70
10304;DHT22;5197;48.152;8.590;2023-04-25T03:23:48;5.80;17.00
10304;DHT22;5197;48.152;8.590;2023-04-25T03:26:16;5.80;16.90
10304;DHT22;5197;48.152;8.590;2023-04-25T03:28:42;5.70;16.80
10304;DHT22;5197;48.152;8.590;2023-04-25T03:31:09;5.80;16.90
10304;DHT22;5197;48.152;8.590;2023-04-25T03:33:36;5.80;17.00
10304;DHT22;5197;48.152;8.590;2023-04-25T03:36:03;5.70;17.00
10304;DHT22;5197;48.152;8.590;2023-04-25T03:38:30;5.70;17.10
10304;DHT22;5197;48.152;8.590;2023-04-25T03:40:57;5.60;17.00
10304;DHT22;5197;48.152;8.590;2023-04-25T03:43:24;5.60;17.10
10304;DHT22;5197;48.152;8.590;2023-04-25T03:45:51;5.60;17.10
10304;DHT22;5197;48.152;8.590;2023-04-25T03:48:18;5.60;16.80
10304;DHT22;5197;48.152;8.590;2023-04-25T03:50:46;5.60;16.70
10304;DHT22;5197;48.152;8.590;2023-04-25T03:53:13;5.60;16.70
10304;DHT22;5197;48.152;8.590;2023-04-25T03:58:09;5.60;15.90
10304;DHT22;5197;48.152;8.590;2023-04-25T04:00:36;5.50;17.00
10304;DHT22;5197;48.152;8.590;2023-04-25T04:03:03;5.50;16.90
10304;DHT22;5197;48.152;8.590;2023-04-25T04:05:30;5.50;17.00
10304;DHT22;5197;48.152;8.590;2023-04-25T04:07:57;5.50;17.00
10304;DHT22;5197;48.152;8.590;2023-04-25T04:10:24;5.50;17.30
10304;DHT22;5197;48.152;8.590;2023-04-25T04:12:52;5.50;17.30
10304;DHT22;5197;48.152;8.590;2023-04-25T04:15:19;5.50;17.40
10304;DHT22;5197;48.152;8.590;2023-04-25T04:17:46;6.60;18.00
10304;DHT22;5197;48.152;8.590;2023-04-25T04:20:13;5.60;17.40
10304;DHT22;5197;48.152;8.590;2023-04-25T04:22:40;5.60;17.50
10304;DHT22;5197;48.152;8.590;2023-04-25T04:25:07;5.60;17.60
10304;DHT22;5197;48.152;8.590;2023-04-25T04:27:34;5.60;17.60
10304;DHT22;5197;48.152;8.590;2023-04-25T04:30:01;5.60;17.90
10304;DHT22;5197;48.152;8.590;2023-04-25T04:32:29;5.70;18.20
10304;DHT22;5197;48.152;8.590;2023-04-25T04:34:57;5.60;18.20
10304;DHT22;5197;48.152;8.590;2023-04-25T04:37:24;5.70;16.70
10304;DHT22;5197;48.152;8.590;2023-04-25T04:39:51;5.60;18.20
10304;DHT22;5197;48.152;8.590;2023-04-25T04:42:18;5.60;18.00
10304;DHT22;5197;48.152;8.590;2023-04-25T04:44:45;5.70;18.20
10304;DHT22;5197;48.152;8.590;2023-04-25T04:47:13;5.70;17.70
10304;DHT22;5197;48.152;8.590;2023-04-25T04:49:40;5.70;18.30
10304;DHT22;5197;48.152;8.590;2023-04-25T04:52:08;5.70;18.30
10304;DHT22;5197;48.152;8.590;2023-04-25T04:54:34;5.70;18.80
10304;DHT22;5197;48.152;8.590;2023-04-25T04:57:02;8.20;20.40
10304;DHT22;5197;48.152;8.590;2023-04-25T04:59:28;5.70;18.90
10304;DHT22;5197;48.152;8.590;2023-04-25T05:01:55;5.70;19.00
10304;DHT22;5197;48.152;8.590;2023-04-25T05:04:22;5.60;18.80
10304;DHT22;5197;48.152;8.590;2023-04-25T05:06:49;5.60;18.80
10304;DHT22;5197;48.152;8.590;2023-04-25T05:09:16;5.50;18.70
10304;DHT22;5197;48.152;8.590;2023-04-25T05:11:43;5.50;18.80
10304;DHT22;5197;48.152;8.590;2023-04-25T05:14:09;5.50;18.90
10304;DHT22;5197;48.152;8.590;2023-04-25T05:16:36;5.40;18.70
10304;DHT22;5197;48.152;8.590;2023-04-25T05:19:03;5.50;19.10
10304;DHT22;5197;48.152;8.590;2023-04-25T05:21:30;5.40;18.70
10304;DHT22;5197;48.152;8.590;2023-04-25T05:23:58;5.40;18.70
10304;DHT22;5197;48.152;8.590;2023-04-25T05:26:24;5.40;18.70
10304;DHT22;5197;48.152;8.590;2023-04-25T05:28:51;5.40;18.80
10304;DHT22;5197;48.152;8.590;2023-04-25T05:31:18;5.50;18.90
10304;DHT22;5197;48.152;8.590;2023-04-25T05:33:46;5.60;18.80
10304;DHT22;5197;48.152;8.590;2023-04-25T05:36:12;5.60;18.90
10304;DHT22;5197;48.152;8.590;2023-04-25T05:38:39;5.70;19.10
10304;DHT22;5197;48.152;8.590;2023-04-25T05:41:07;5.80;19.10
10304;DHT22;5197;48.152;8.590;2023-04-25T05:43:34;5.80;19.10
10304;DHT22;5197;48.152;8.590;2023-04-25T05:46:00;5.70;19.20
10304;DHT22;5197;48.152;8.590;2023-04-25T05:48:28;5.80;19.60
10304;DHT22;5197;48.152;8.590;2023-04-25T05:50:54;5.90;19.20
10304;DHT22;5197;48.152;8.590;2023-04-25T05:53:21;5.90;19.10
10304;DHT22;5197;48.152;8.590;2023-04-25T05:55:48;5.80;19.00
10304;DHT22;5197;48.152;8.590;2023-04-25T05:58:15;6.00;19.20
10304;DHT22;5197;48.152;8.590;2023-04-25T06:00:42;5.90;19.10
10304;DHT22;5197;48.152;8.590;2023-04-25T06:03:09;5.90;19.40
10304;DHT22;5197;48.152;8.590;2023-04-25T06:05:36;5.90;19.10
10304;DHT22;5197;48.152;8.590;2023-04-25T06:08:03;6.00;19.10
10304;DHT22;5197;48.152;8.590;2023-04-25T06:10:30;6.10;19.10
10304;DHT22;5197;48.152;8.590;2023-04-25T06:12:57;6.00;19.10
10304;DHT22;5197;48.152;8.590;2023-04-25T06:15:23;6.10;18.20
10304;DHT22;5197;48.152;8.590;2023-04-25T06:17:56;6.10;19.10
10304;DHT22;5197;48.152;8.590;2023-04-25T06:20:23;6.10;19.10
10304;DHT22;5197;48.152;8.590;2023-04-25T06:22:51;6.10;19.10
10304;DHT22;5197;48.152;8.590;2023-04-25T06:25:19;7.30;19.90
10304;DHT22;5197;48.152;8.590;2023-04-25T06:27:46;6.10;19.10
10304;DHT22;5197;48.152;8.590;2023-04-25T06:30:13;6.20;19.20
10304;DHT22;5197;48.152;8.590;2023-04-25T06:32:40;6.20;19.20
10304;DHT22;5197;48.152;8.590;2023-04-25T06:35:07;6.20;19.20
10304;DHT22;5197;48.152;8.590;2023-04-25T06:37:34;6.30;19.20
10304;DHT22;5197;48.152;8.590;2023-04-25T06:40:01;6.30;19.40
10304;DHT22;5197;48.152;8.590;2023-04-25T06:42:29;6.40;19.20
10304;DHT22;5197;48.152;8.590;2023-04-25T06:44:55;5.30;18.60
10304;DHT22;5197;48.152;8.590;2023-04-25T06:47:22;6.30;18.40
10304;DHT22;5197;48.152;8.590;2023-04-25T06:49:49;6.20;19.20
10304;DHT22;5197;48.152;8.590;2023-04-25T06:52:16;6.20;19.20
10304;DHT22;5197;48.152;8.590;2023-04-25T06:54:44;6.20;19.20
10304;DHT22;5197;48.152;8.590;2023-04-25T06:57:12;6.30;19.20
10304;DHT22;5197;48.152;8.590;2023-04-25T06:59:39;6.30;19.20
10304;DHT22;5197;48.152;8.590;2023-04-25T07:02:06;6.20;19.20
10304;DHT22;5197;48.152;8.590;2023-04-25T07:04:33;6.20;19.20
10304;DHT22;5197;48.152;8.590;2023-04-25T07:07:00;6.30;19.20
10304;DHT22;5197;48.152;8.590;2023-04-25T07:09:29;6.40;19.40
10304;DHT22;5197;48.152;8.590;2023-04-25T07:11:56;6.40;19.20
10304;DHT22;5197;48.152;8.590;2023-04-25T07:14:23;6.30;19.30
10304;DHT22;5197;48.152;8.590;2023-04-25T07:16:50;6.40;19.30
10304;DHT22;5197;48.152;8.590;2023-04-25T07:19:17;6.30;19.30
10304;DHT22;5197;48.152;8.590;2023-04-25T07:21:44;6.30;19.30
10304;DHT22;5197;48.152;8.590;2023-04-25T07:24:11;6.40;19.40
10304;DHT22;5197;48.152;8.590;2023-04-25T07:26:38;6.40;19.50
10304;DHT22;5197;48.152;8.590;2023-04-25T07:29:05;6.30;19.40
10304;DHT22;5197;48.152;8.590;2023-04-25T07:31:34;6.10;19.60
10304;DHT22;5197;48.152;8.590;2023-04-25T07:34:00;6.20;19.30
10304;DHT22;5197;48.152;8.590;2023-04-25T07:36:28;6.20;18.30
10304;DHT22;5197;48.152;8.590;2023-04-25T07:38:56;6.20;19.20
10304;DHT22;5197;48.152;8.590;2023-04-25T07:41:23;6.10;19.20
10304;DHT22;5197;48.152;8.590;2023-04-25T07:43:49;6.10;19.30
10304;DHT22;5197;48.152;8.590;2023-04-25T07:46:17;5.90;19.20
10304;DHT22;5197;48.152;8.590;2023-04-25T07:48:44;5.80;19.10
10304;DHT22;5197;48.152;8.590;2023-04-25T07:51:11;5.80;19.10
10304;DHT22;5197;48.152;8.590;2023-04-25T07:53:38;5.70;18.90
10304;DHT22;5197;48.152;8.590;2023-04-25T07:56:05;5.50;18.80
10304;DHT22;5197;48.152;8.590;2023-04-25T07:58:32;5.40;18.80
10304;DHT22;5197;48.152;8.590;2023-04-25T08:00:59;5.20;18.80
10304;DHT22;5197;48.152;8.590;2023-04-25T08:03:26;5.10;18.80
10304;DHT22;5197;48.152;8.590;2023-04-25T08:05:53;5.10;19.70
10304;DHT22;5197;48.152;8.590;2023-04-25T08:08:21;5.00;20.20
10304;DHT22;5197;48.152;8.590;2023-04-25T08:10:48;5.00;19.80
10304;DHT22;5197;48.152;8.590;2023-04-25T08:13:15;5.00;20.00
10304;DHT22;5197;48.152;8.590;2023-04-25T08:15:42;5.10;19.80
10304;DHT22;5197;48.152;8.590;2023-04-25T08:18:09;5.10;19.60
10304;DHT22;5197;48.152;8.590;2023-04-25T08:20:36;5.10;19.40
10304;DHT22;5197;48.152;8.590;2023-04-25T08:23:02;5.20;19.30
10304;DHT22;5197;48.152;8.590;2023-04-25T08:25:29;5.20;18.90
10304;DHT22;5197;48.152;8.590;2023-04-25T08:27:56;5.10;19.00
10304;DHT22;5197;48.152;8.590;2023-04-25T08:30:23;5.20;18.60
10304;DHT22;5197;48.152;8.590;2023-04-25T08:32:50;5.30;18.80
10304;DHT22;5197;48.152;8.590;2023-04-25T08:35:17;5.30;18.80
10304;DHT22;5197;48.152;8.590;2023-04-25T08:37:44;5.40;19.20
10304;DHT22;5197;48.152;8.590;2023-04-25T08:40:14;5.40;19.70
10304;DHT22;5197;48.152;8.590;2023-04-25T08:42:42;5.40;19.50
10304;DHT22;5197;48.152;8.590;2023-04-25T08:45:10;5.40;19.40
10304;DHT22;5197;48.152;8.590;2023-04-25T08:47:38;5.40;19.70
10304;DHT22;5197;48.152;8.590;2023-04-25T08:50:06;5.20;21.90
10304;DHT22;5197;48.152;8.590;2023-04-25T08:52:43;5.00;23.40
10304;DHT22;5197;48.152;8.590;2023-04-25T08:55:12;4.70;25.20
10304;DHT22;5197;48.152;8.590;2023-04-25T08:57:40;4.50;26.90
10304;DHT22;5197;48.152;8.590;2023-04-25T09:00:11;4.50;28.40
10304;DHT22;5197;48.152;8.590;2023-04-25T09:02:39;4.60;29.60
10304;DHT22;5197;48.152;8.590;2023-04-25T09:05:07;6.70;31.70
10304;DHT22;5197;48.152;8.590;2023-04-25T09:07:36;4.50;30.00
10304;DHT22;5197;48.152;8.590;2023-04-25T09:10:03;4.50;30.40
10304;DHT22;5197;48.152;8.590;2023-04-25T09:12:30;4.60;32.80
10304;DHT22;5197;48.152;8.590;2023-04-25T09:15:06;4.50;31.60
10304;DHT22;5197;48.152;8.590;2023-04-25T09:17:33;4.70;31.90
10304;DHT22;5197;48.152;8.590;2023-04-25T09:20:12;4.70;34.40
10304;DHT22;5197;48.152;8.590;2023-04-25T09:22:39;4.80;33.20
10304;DHT22;5197;48.152;8.590;2023-04-25T09:25:10;4.80;31.70
10304;DHT22;5197;48.152;8.590;2023-04-25T09:27:52;4.80;31.70
10304;DHT22;5197;48.152;8.590;2023-04-25T09:30:29;5.00;31.50
10304;DHT22;5197;48.152;8.590;2023-04-25T09:32:58;5.10;32.90
10304;DHT22;5197;48.152;8.590;2023-04-25T09:35:42;5.00;31.30
10304;DHT22;5197;48.152;8.590;2023-04-25T09:38:14;5.20;31.60
10304;DHT22;5197;48.152;8.590;2023-04-25T09:40:45;5.10;31.70
10304;DHT22;5197;48.152;8.590;2023-04-25T09:43:19;5.10;32.70
10304;DHT22;5197;48.152;8.590;2023-04-25T09:45:47;5.00;29.50
10304;DHT22;5197;48.152;8.590;2023-04-25T09:48:18;5.00;30.90
10304;DHT22;5197;48.152;8.590;2023-04-25T09:53:40;5.10;31.30
10304;DHT22;5197;48.152;8.590;2023-04-25T09:56:08;3.50;29.70
10304;DHT22;5197;48.152;8.590;2023-04-25T09:58:37;5.00;33.00
10304;DHT22;5197;48.152;8.590;2023-04-25T10:01:09;5.20;37.40
10304;DHT22;5197;48.152;8.590;2023-04-25T10:03:38;5.20;31.40
10304;DHT22;5197;48.152;8.590;2023-04-25T10:06:29;5.40;31.90
10304;DHT22;5197;48.152;8.590;2023-04-25T10:08:56;5.40;31.40
10304;DHT22;5197;48.152;8.590;2023-04-25T10:11:24;5.30;29.60
10304;DHT22;5197;48.152;8.590;2023-04-25T10:13:52;5.30;29.60
10304;DHT22;5197;48.152;8.590;2023-04-25T10:16:20;5.60;31.50
10304;DHT22;5197;48.152;8.590;2023-04-25T10:18:50;5.70;28.70
10304;DHT22;5197;48.152;8.590;2023-04-25T10:21:17;5.90;31.90
10304;DHT22;5197;48.152;8.590;2023-04-25T10:23:45;6.00;30.00
10304;DHT22;5197;48.152;8.590;2023-04-25T10:26:13;6.00;28.80
10304;DHT22;5197;48.152;8.590;2023-04-25T10:29:07;6.20;28.20
10304;DHT22;5197;48.152;8.590;2023-04-25T10:31:45;6.30;26.20
10304;DHT22;5197;48.152;8.590;2023-04-25T10:34:13;6.30;26.10
10304;DHT22;5197;48.152;8.590;2023-04-25T10:36:40;6.20;21.90
10304;DHT22;5197;48.152;8.590;2023-04-25T10:39:07;6.00;24.70
10304;DHT22;5197;48.152;8.590;2023-04-25T10:41:56;6.10;23.40
10304;DHT22;5197;48.152;8.590;2023-04-25T10:44:31;6.10;23.60
10304;DHT22;5197;48.152;8.590;2023-04-25T10:46:59;6.20;24.80
10304;DHT22;5197;48.152;8.590;2023-04-25T10:49:36;6.20;24.60
10304;DHT22;5197;48.152;8.590;2023-04-25T10:52:27;6.30;22.40
10304;DHT22;5197;48.152;8.590;2023-04-25T10:54:58;6.20;23.70
10304;DHT22;5197;48.152;8.590;2023-04-25T10:57:47;6.40;25.70
10304;DHT22;5197;48.152;8.590;2023-04-25T11:00:20;6.40;26.00
10304;DHT22;5197;48.152;8.590;2023-04-25T11:02:59;6.40;22.80
10304;DHT22;5197;48.152;8.590;2023-04-25T11:05:33;6.50;23.90
10304;DHT22;5197;48.152;8.590;2023-04-25T11:08:13;6.70;19.40
10304;DHT22;5197;48.152;8.590;2023-04-25T11:10:44;6.80;20.90
10304;DHT22;5197;48.152;8.590;2023-04-25T11:13:11;6.80;21.60
10304;DHT22;5197;48.152;8.590;2023-04-25T11:15:38;7.10;21.50
10304;DHT22;5197;48.152;8.590;2023-04-25T11:18:05;7.10;21.50
10304;DHT22;5197;48.152;8.590;2023-04-25T11:20:31;7.20;20.30
10304;DHT22;5197;48.152;8.590;2023-04-25T11:22:58;7.20;18.60
10304;DHT22;5197;48.152;8.590;2023-04-25T11:25:28;7.20;19.70
10304;DHT22;5197;48.152;8.590;2023-04-25T11:27:57;7.10;19.60
10304;DHT22;5197;48.152;8.590;2023-04-25T11:30:25;7.00;17.50
10304;DHT22;5197;48.152;8.590;2023-04-25T11:32:53;7.30;19.80
10304;DHT22;5197;48.152;8.590;2023-04-25T11:35:20;7.60;17.50
10304;DHT22;5197;48.152;8.590;2023-04-25T11:37:49;7.50;16.70
10304;DHT22;5197;48.152;8.590;2023-04-25T11:40:16;7.60;19.60
10304;DHT22;5197;48.152;8.590;2023-04-25T11:42:46;7.60;19.20
10304;DHT22;5197;48.152;8.590;2023-04-25T11:45:14;7.60;19.50
10304;DHT22;5197;48.152;8.590;2023-04-25T11:47:41;7.40;18.70
10304;DHT22;5197;48.152;8.590;2023-04-25T11:50:09;7.30;16.40
10304;DHT22;5197;48.152;8.590;2023-04-25T11:52:38;7.30;18.30
10304;DHT22;5197;48.152;8.590;2023-04-25T11:55:18;7.10;18.60
10304;DHT22;5197;48.152;8.590;2023-04-25T11:57:49;7.10;17.20
10304;DHT22;5197;48.152;8.590;2023-04-25T12:00:20;7.10;16.90
10304;DHT22;5197;48.152;8.590;2023-04-25T12:02:54;7.00;18.60
10304;DHT22;5197;48.152;8.590;2023-04-25T12:05:27;6.90;15.50
10304;DHT22;5197;48.152;8.590;2023-04-25T12:08:11;6.90;19.50
10304;DHT22;5197;48.152;8.590;2023-04-25T12:10:42;7.10;17.90
10304;DHT22;5197;48.152;8.590;2023-04-25T12:13:26;7.30;19.80
10304;DHT22;5197;48.152;8.590;2023-04-25T12:15:54;7.30;16.30
10304;DHT22;5197;48.152;8.590;2023-04-25T12:18:26;7.40;18.20
10304;DHT22;5197;48.152;8.590;2023-04-25T12:20:58;7.40;14.50
10304;DHT22;5197;48.152;8.590;2023-04-25T12:23:28;7.30;15.30
10304;DHT22;5197;48.152;8.590;2023-04-25T12:25:58;7.40;16.90
10304;DHT22;5197;48.152;8.590;2023-04-25T12:28:25;7.40;17.10
10304;DHT22;5197;48.152;8.590;2023-04-25T12:31:00;7.50;17.50
10304;DHT22;5197;48.152;8.590;2023-04-25T12:33:38;7.70;16.50
10304;DHT22;5197;48.152;8.590;2023-04-25T12:36:06;7.50;10.20
10304;DHT22;5197;48.152;8.590;2023-04-25T12:38:40;7.40;14.70
10304;DHT22;5197;48.152;8.590;2023-04-25T12:41:08;7.40;14.90
10304;DHT22;5197;48.152;8.590;2023-04-25T12:43:35;7.40;12.30
10304;DHT22;5197;48.152;8.590;2023-04-25T12:46:03;7.60;15.90
10304;DHT22;5197;48.152;8.590;2023-04-25T12:48:29;7.80;16.70
10304;DHT22;5197;48.152;8.590;2023-04-25T12:50:56;8.70;15.10
10304;DHT22;5197;48.152;8.590;2023-04-25T12:53:23;8.00;15.80
10304;DHT22;5197;48.152;8.590;2023-04-25T12:55:51;8.30;10.40
10304;DHT22;5197;48.152;8.590;2023-04-25T12:58:19;8.50;7.60
10304;DHT22;5197;48.152;8.590;2023-04-25T13:00:46;9.20;9.70
10304;DHT22;5197;48.152;8.590;2023-04-25T13:03:14;9.00;9.00
10304;DHT22;5197;48.152;8.590;2023-04-25T13:05:42;9.10;10.20
10304;DHT22;5197;48.152;8.590;2023-04-25T13:08:10;9.20;8.60
10304;DHT22;5197;48.152;8.590;2023-04-25T13:10:38;8.70;7.90
10304;DHT22;5197;48.152;8.590;2023-04-25T13:13:08;8.30;7.70
10304;DHT22;5197;48.152;8.590;2023-04-25T13:15:38;8.10;10.80
10304;DHT22;5197;48.152;8.590;2023-04-25T13:18:06;8.10;12.20
10304;DHT22;5197;48.152;8.590;2023-04-25T13:20:33;8.00;12.50
10304;DHT22;5197;48.152;8.590;2023-04-25T13:23:01;8.00;14.70
10304;DHT22;5197;48.152;8.590;2023-04-25T13:25:28;8.10;15.90
10304;DHT22;5197;48.152;8.590;2023-04-25T13:27:55;8.10;11.40
10304;DHT22;5197;48.152;8.590;2023-04-25T13:30:22;8.10;11.70
10304;DHT22;5197;48.152;8.590;2023-04-25T13:32:49;8.10;11.60
10304;DHT22;5197;48.152;8.590;2023-04-25T13:35:16;8.20;14.40
10304;DHT22;5197;48.152;8.590;2023-04-25T13:37:43;8.20;9.60
10304;DHT22;5197;48.152;8.590;2023-04-25T13:40:11;8.30;9.60
10304;DHT22;5197;48.152;8.590;2023-04-25T13:42:39;8.40;9.20
10304;DHT22;5197;48.152;8.590;2023-04-25T13:45:07;8.50;9.50
10304;DHT22;5197;48.152;8.590;2023-04-25T13:47:35;8.40;8.70
10304;DHT22;5197;48.152;8.590;2023-04-25T13:50:03;8.30;9.30
10304;DHT22;5197;48.152;8.590;2023-04-25T13:52:30;8.30;10.10
10304;DHT22;5197;48.152;8.590;2023-04-25T13:54:57;8.20;10.20
10304;DHT22;5197;48.152;8.590;2023-04-25T13:57:24;8.40;9.60
10304;DHT22;5197;48.152;8.590;2023-04-25T13:59:54;8.30;10.30
10304;DHT22;5197;48.152;8.590;2023-04-25T14:02:20;8.40;10.20
10304;DHT22;5197;48.152;8.590;2023-04-25T14:04:49;8.30;9.90
10304;DHT22;5197;48.152;8.590;2023-04-25T14:07:15;8.50;9.00
10304;DHT22;5197;48.152;8.590;2023-04-25T14:09:42;8.60;7.60
10304;DHT22;5197;48.152;8.590;2023-04-25T14:12:09;11.90;8.60
10304;DHT22;5197;48.152;8.590;2023-04-25T14:14:37;8.60;1.30
10304;DHT22;5197;48.152;8.590;2023-04-25T14:17:06;8.70;4.70
10304;DHT22;5197;48.152;8.590;2023-04-25T14:19:33;8.60;4.30
10304;DHT22;5197;48.152;8.590;2023-04-25T14:22:00;8.60;5.40
10304;DHT22;5197;48.152;8.590;2023-04-25T14:24:27;8.50;4.80
10304;DHT22;5197;48.152;8.590;2023-04-25T14:26:54;9.00;6.90
10304;DHT22;5197;48.152;8.590;2023-04-25T14:29:21;8.50;7.80
10304;DHT22;5197;48.152;8.590;2023-04-25T14:31:50;8.50;7.20
10304;DHT22;5197;48.152;8.590;2023-04-25T14:34:17;8.70;6.70
10304;DHT22;5197;48.152;8.590;2023-04-25T14:36:43;8.70;6.50
10304;DHT22;5197;48.152;8.590;2023-04-25T14:39:17;8.70;5.80
10304;DHT22;5197;48.152;8.590;2023-04-25T14:41:45;9.00;7.00
10304;DHT22;5197;48.152;8.590;2023-04-25T14:44:12;9.20;6.30
10304;DHT22;5197;48.152;8.590;2023-04-25T14:46:39;9.30;7.20
10304;DHT22;5197;48.152;8.590;2023-04-25T14:49:06;9.30;6.00
10304;DHT22;5197;48.152;8.590;2023-04-25T14:51:34;9.40;6.00
10304;DHT22;5197;48.152;8.590;2023-04-25T14:54:01;9.40;5.80
10304;DHT22;5197;48.152;8.590;2023-04-25T14:56:27;9.40;5.40
10304;DHT22;5197;48.152;8.590;2023-04-25T14:58:54;9.50;5.00
10304;DHT22;5197;48.152;8.590;2023-04-25T15:01:22;9.60;5.30
10304;DHT22;5197;48.152;8.590;2023-04-25T15:03:49;9.70;4.60
10304;DHT22;5197;48.152;8.590;2023-04-25T15:06:18;9.80;3.90
10304;DHT22;5197;48.152;8.590;2023-04-25T15:08:45;9.80;3.90
10304;DHT22;5197;48.152;8.590;2023-04-25T15:11:12;9.50;1.30
10304;DHT22;5197;48.152;8.590;2023-04-25T15:13:39;9.30;4.00
10304;DHT22;5197;48.152;8.590;2023-04-25T15:16:06;8.80;4.40
10304;DHT22;5197;48.152;8.590;2023-04-25T15:18:33;8.20;8.40
10304;DHT22;5197;48.152;8.590;2023-04-25T15:21:01;7.50;10.00
10304;DHT22;5197;48.152;8.590;2023-04-25T15:23:28;6.90;18.70
10304;DHT22;5197;48.152;8.590;2023-04-25T15:25:55;7.00;18.30
10304;DHT22;5197;48.152;8.590;2023-04-25T15:28:22;7.00;18.40
10304;DHT22;5197;48.152;8.590;2023-04-25T15:30:49;7.10;19.80
10304;DHT22;5197;48.152;8.590;2023-04-25T15:33:17;7.20;16.20
10304;DHT22;5197;48.152;8.590;2023-04-25T15:35:44;7.20;16.70
10304;DHT22;5197;48.152;8.590;2023-04-25T15:38:11;7.30;16.30
10304;DHT22;5197;48.152;8.590;2023-04-25T15:40:39;7.40;16.80
10304;DHT22;5197;48.152;8.590;2023-04-25T15:43:06;7.50;15.10
10304;DHT22;5197;48.152;8.590;2023-04-25T15:45:36;7.60;15.50
10304;DHT22;5197;48.152;8.590;2023-04-25T15:48:04;7.60;14.50
10304;DHT22;5197;48.152;8.590;2023-04-25T15:50:31;7.70;14.00
10304;DHT22;5197;48.152;8.590;2023-04-25T15:52:58;7.70;14.30
10304;DHT22;5197;48.152;8.590;2023-04-25T15:55:25;7.70;13.80
10304;DHT22;5197;48.152;8.590;2023-04-25T15:57:53;7.70;12.50
10304;DHT22;5197;48.152;8.590;2023-04-25T16:00:22;7.70;12.90
10304;DHT22;5197;48.152;8.590;2023-04-25T16:02:50;7.70;12.40
10304;DHT22;5197;48.152;8.590;2023-04-25T16:05:17;7.80;12.40
10304;DHT22;5197;48.152;8.590;2023-04-25T16:07:45;7.90;11.50
10304;DHT22;5197;48.152;8.590;2023-04-25T16:10:13;7.90;11.40
10304;DHT22;5197;48.152;8.590;2023-04-25T16:12:45;7.80;9.00
10304;DHT22;5197;48.152;8.590;2023-04-25T16:15:16;7.90;10.50
10304;DHT22;5197;48.152;8.590;2023-04-25T16:17:43;8.00;11.90